KMWL/MWL METAR and TAF weather

Enter ICAO airport designator
Station Type Date Time Source
KMWL METAR 2020/04/08 20:53 UTC NOAA

KMWL 082053Z AUTO 26011KT 8SM CLR 34/06 A2979 RMK AO2 SLP072 T03440061 56018


Station Type Date Time Source
KMWL Decoded METAR 2020/04/08 20:53 UTC NOAA

MINERAL WELLS AIRPORT, TX, United States (KMWL) 32-47N 098-04W 284M
Apr 08, 2020 - 04:53 PM EDT / 2020.04.08 2053 UTC
Wind: from the W (260 degrees) at 13 MPH (11 KT):0
Visibility: 8 mile(s):0
Sky conditions: clear
Temperature: 93.9 F (34.4 C)
Dew Point: 43.0 F (6.1 C)
Relative Humidity: 17%
Pressure (altimeter): 29.79 in. Hg (1008 hPa)
Pressure tendency: 0.05 inches (1.8 hPa) lower than three hours ago
ob: KMWL 082053Z AUTO 26011KT 8SM CLR 34/06 A2979 RMK AO2 SLP072 T03440061 56018
cycle: 21

Station Type Date Time Source
KMWL TAF UTC NOAA

Error!

Example: see airport list